Time;durP1;ratioP1;P1;durP2;ratioP2;P2;SDS_P1;SDS_P2;PMS_P1;PMS_P2;Temp;Humidity;BMP_temperature;BMP_pressure;BME280_temperature;BME280_humidity;BME280_pressure;Samples;Min_cycle;Max_cycle;Signal;HPM_P1;HPM_P2
2022/06/21 00:01:06;;;;;;;6.97;3.47;;;12.60;99.90;;;;;;4941367;29;20620;-83
2022/06/21 00:03:33;;;;;;;4.87;3.00;;;12.60;99.90;;;;;;4938236;29;20313;-83
2022/06/21 00:06:00;;;;;;;4.40;2.90;;;12.60;99.90;;;;;;4933051;29;20285;-83
2022/06/21 00:08:30;;;;;;;5.13;2.83;;;12.50;99.90;;;;;;4933346;29;20194;-83
2022/06/21 00:10:58;;;;;;;4.33;2.73;;;12.50;99.90;;;;;;4932739;29;20297;-84
2022/06/21 00:13:27;;;;;;;3.53;2.90;;;12.40;99.90;;;;;;4934895;29;20294;-82
2022/06/21 00:15:58;;;;;;;3.37;2.73;;;12.40;99.90;;;;;;4951410;29;20214;-82
2022/06/21 00:18:27;;;;;;;4.50;2.53;;;12.40;99.90;;;;;;4952009;29;20228;-84
2022/06/21 00:20:55;;;;;;;6.33;3.40;;;12.40;99.90;;;;;;4952242;29;20905;-82
2022/06/21 00:23:24;;;;;;;7.00;3.43;;;12.30;99.90;;;;;;4940008;29;20225;-79
2022/06/21 00:25:51;;;;;;;5.37;2.97;;;12.30;99.90;;;;;;4932182;29;20212;-83
2022/06/21 00:28:20;;;;;;;5.10;3.10;;;12.30;99.90;;;;;;4972770;23;20324;-84
2022/06/21 00:30:48;;;;;;;4.30;3.40;;;12.30;99.90;;;;;;4991037;28;20211;-83
2022/06/21 00:33:22;;;;;;;5.00;3.40;;;12.20;99.90;;;;;;4989580;28;20200;-76
2022/06/21 00:35:51;;;;;;;3.67;3.20;;;12.20;99.90;;;;;;4989644;28;20203;-82
2022/06/21 00:38:24;;;;;;;4.63;3.30;;;12.20;99.90;;;;;;4989261;28;20314;-83
2022/06/21 00:40:51;;;;;;;7.13;4.07;;;12.20;99.90;;;;;;4988795;28;20210;-80
2022/06/21 00:43:21;;;;;;;4.10;3.10;;;12.20;99.90;;;;;;4987945;28;20206;-77
2022/06/21 00:45:50;;;;;;;3.97;2.80;;;12.10;99.90;;;;;;4969877;28;20200;-79
2022/06/21 00:48:25;;;;;;;5.23;3.10;;;12.10;99.90;;;;;;4970000;28;20208;-81
2022/06/21 00:50:54;;;;;;;2.97;2.67;;;12.10;99.90;;;;;;4970588;28;20192;-83
2022/06/21 00:53:26;;;;;;;4.67;2.70;;;12.10;99.90;;;;;;4979422;28;20208;-77
2022/06/21 00:56:05;;;;;;;5.80;3.73;;;12.00;99.90;;;;;;4988644;28;20588;-81
2022/06/21 00:58:32;;;;;;;5.07;3.03;;;12.00;99.90;;;;;;4969573;28;20196;-78
2022/06/21 01:01:03;;;;;;;4.23;3.10;;;12.00;99.90;;;;;;4971095;28;20287;-77
2022/06/21 01:03:36;;;;;;;3.17;2.60;;;12.00;99.90;;;;;;4983913;28;20223;-79
2022/06/21 01:06:06;;;;;;;6.90;3.10;;;11.90;99.90;;;;;;4969969;28;20205;-81
2022/06/21 01:08:38;;;;;;;5.63;3.07;;;11.90;99.90;;;;;;4958069;28;20217;-82
2022/06/21 01:11:10;;;;;;;4.67;3.33;;;11.80;99.90;;;;;;4949251;29;20206;-83
2022/06/21 01:13:41;;;;;;;3.63;3.10;;;11.80;99.90;;;;;;4951908;29;20496;-83
2022/06/21 01:16:08;;;;;;;3.43;2.87;;;11.70;99.90;;;;;;4968423;28;20204;-83
2022/06/21 01:18:38;;;;;;;4.33;3.00;;;11.70;99.90;;;;;;4970563;28;20203;-84
2022/06/21 01:21:05;;;;;;;5.93;3.67;;;11.70;99.90;;;;;;4970063;28;20204;-83
2022/06/21 01:23:43;;;;;;;5.60;3.53;;;11.70;99.90;;;;;;4955282;28;20217;-84
2022/06/21 01:26:49;;;;;;;5.93;3.47;;;11.70;99.90;;;;;;4951229;29;20295;-83
2022/06/21 01:29:22;;;;;;;5.23;3.70;;;11.60;99.90;;;;;;4920871;29;20240;-83
2022/06/21 01:31:50;;;;;;;11.03;3.90;;;11.60;99.90;;;;;;4931723;29;20469;-83
2022/06/21 01:34:19;;;;;;;5.20;3.20;;;11.60;99.90;;;;;;4931910;29;20208;-84
2022/06/21 01:36:48;;;;;;;5.63;3.20;;;11.60;99.90;;;;;;4930277;29;20213;-83
2022/06/21 01:39:21;;;;;;;4.43;3.33;;;11.60;99.90;;;;;;4931099;29;20229;-83
2022/06/21 01:41:53;;;;;;;5.50;3.10;;;11.50;99.90;;;;;;4931389;29;20862;-83
2022/06/21 01:44:25;;;;;;;4.60;3.77;;;11.50;99.90;;;;;;4929845;29;20205;-83
2022/06/21 01:46:53;;;;;;;3.80;3.20;;;11.50;99.90;;;;;;4930662;29;20598;-83
2022/06/21 01:49:24;;;;;;;3.73;3.20;;;11.50;99.90;;;;;;4934599;29;20212;-83
2022/06/21 01:51:55;;;;;;;4.90;3.47;;;11.50;99.90;;;;;;4940186;29;20293;-83
2022/06/21 01:54:25;;;;;;;5.30;3.50;;;11.40;99.90;;;;;;4944967;29;20603;-78
2022/06/21 01:56:53;;;;;;;5.23;3.60;;;11.40;99.90;;;;;;4949481;29;20209;-81
2022/06/21 01:59:25;;;;;;;4.20;3.23;;;11.40;99.90;;;;;;4950151;29;20228;-83
2022/06/21 02:01:55;;;;;;;3.77;2.73;;;11.40;99.90;;;;;;4949529;29;20605;-82
2022/06/21 02:04:25;;;;;;;3.20;2.67;;;11.30;99.90;;;;;;4949884;29;20229;-77
2022/06/21 02:06:54;;;;;;;4.67;3.03;;;11.30;99.90;;;;;;4950390;28;20295;-82
2022/06/21 02:09:24;;;;;;;3.67;2.80;;;11.30;99.90;;;;;;4941554;29;20305;-84
2022/06/21 02:11:57;;;;;;;3.03;2.73;;;11.30;99.90;;;;;;4935239;29;20198;-83
2022/06/21 02:14:31;;;;;;;4.10;3.37;;;11.20;99.90;;;;;;4934913;29;20198;-78
2022/06/21 02:17:05;;;;;;;3.70;3.20;;;11.20;99.90;;;;;;4933449;29;20649;-80
2022/06/21 02:19:39;;;;;;;4.70;3.50;;;11.20;99.90;;;;;;4933937;29;20229;-82
2022/06/21 02:22:10;;;;;;;5.10;3.20;;;11.10;99.90;;;;;;4941066;29;20210;-81
2022/06/21 02:24:37;;;;;;;3.37;3.07;;;11.10;99.90;;;;;;4951899;29;20228;-82
2022/06/21 02:27:06;;;;;;;5.97;3.70;;;11.10;99.90;;;;;;4955253;28;20217;-82
2022/06/21 02:29:35;;;;;;;4.57;3.20;;;11.10;99.90;;;;;;4973502;28;20574;-78
2022/06/21 02:32:04;;;;;;;3.37;2.83;;;11.10;99.90;;;;;;4972305;28;20209;-83
2022/06/21 02:34:36;;;;;;;4.37;3.03;;;11.00;99.90;;;;;;4972776;28;20620;-82
2022/06/21 02:37:05;;;;;;;5.03;3.10;;;11.00;99.90;;;;;;4973252;28;20239;-82
2022/06/21 02:39:36;;;;;;;4.37;3.20;;;11.00;99.90;;;;;;4972217;28;20400;-83
2022/06/21 02:42:08;;;;;;;3.40;2.70;;;11.00;99.90;;;;;;4952601;28;20304;-83
2022/06/21 02:44:39;;;;;;;4.80;3.20;;;11.00;99.90;;;;;;4952541;29;20255;-83
2022/06/21 02:47:12;;;;;;;3.17;2.90;;;10.90;99.90;;;;;;4950348;29;20208;-83
2022/06/21 02:49:44;;;;;;;4.23;2.70;;;10.90;99.90;;;;;;4969916;28;20271;-78
2022/06/21 02:52:15;;;;;;;4.27;3.50;;;10.90;99.90;;;;;;4971604;28;20573;-82
2022/06/21 02:54:48;;;;;;;3.40;2.97;;;10.90;99.90;;;;;;4971988;28;20200;-82
2022/06/21 02:57:22;;;;;;;4.17;3.10;;;10.90;99.90;;;;;;4961696;28;20351;-82
2022/06/21 02:59:52;;;;;;;3.47;3.17;;;10.90;99.90;;;;;;4952910;29;20252;-83
2022/06/21 03:02:23;;;;;;;4.13;3.30;;;10.80;99.90;;;;;;4952900;28;20533;-82
2022/06/21 03:04:53;;;;;;;3.77;3.27;;;10.80;99.90;;;;;;4953006;28;20221;-81
2022/06/21 03:07:24;;;;;;;6.17;3.70;;;10.80;99.90;;;;;;4952576;28;20209;-82
2022/06/21 03:09:51;;;;;;;3.73;3.40;;;10.80;99.90;;;;;;4953048;29;20205;-82
2022/06/21 03:12:22;;;;;;;5.10;4.17;;;10.80;99.90;;;;;;4952901;29;20201;-82
2022/06/21 03:14:52;;;;;;;7.33;4.03;;;10.80;99.90;;;;;;4951925;28;20201;-82
2022/06/21 03:17:24;;;;;;;3.83;3.20;;;10.70;99.90;;;;;;4952497;29;20205;-82
2022/06/21 03:19:52;;;;;;;3.63;3.33;;;10.70;99.90;;;;;;4952480;28;20244;-82
2022/06/21 03:22:22;;;;;;;6.20;3.67;;;10.70;99.90;;;;;;4951525;29;20201;-80
2022/06/21 03:24:52;;;;;;;6.80;4.53;;;10.70;99.90;;;;;;4952709;28;20341;-82
2022/06/21 03:27:27;;;;;;;5.13;3.67;;;10.70;99.90;;;;;;4952718;29;20249;-82
2022/06/21 03:29:56;;;;;;;3.70;3.07;;;10.80;99.90;;;;;;4951082;28;20276;-82
2022/06/21 03:32:24;;;;;;;4.30;3.57;;;10.70;99.90;;;;;;4952687;29;20210;-82
2022/06/21 03:34:51;;;;;;;5.07;3.70;;;10.70;99.90;;;;;;4966417;28;20624;-82
2022/06/21 03:37:18;;;;;;;5.97;3.07;;;10.80;99.90;;;;;;4971084;28;20211;-79
2022/06/21 03:42:36;;;;;;;4.60;3.50;;;10.80;99.90;;;;;;4951818;28;20204;-81
2022/06/21 03:45:11;;;;;;;6.63;4.70;;;10.80;99.90;;;;;;4951269;29;20213;-81
2022/06/21 03:47:43;;;;;;;3.77;3.47;;;10.80;99.90;;;;;;4951597;29;20208;-83
2022/06/21 03:50:14;;;;;;;3.97;3.57;;;10.80;99.90;;;;;;4951343;28;20211;-83
2022/06/21 03:52:48;;;;;;;6.23;3.90;;;10.80;99.90;;;;;;4954222;28;20665;-82
2022/06/21 03:55:35;;;;;;;4.90;3.60;;;10.80;99.90;;;;;;4970609;28;20604;-79
2022/06/21 03:58:07;;;;;;;4.50;4.03;;;10.80;99.90;;;;;;4964509;28;20204;-80
2022/06/21 04:00:41;;;;;;;5.30;4.03;;;10.80;99.90;;;;;;4951451;28;20228;-81
2022/06/21 04:03:16;;;;;;;7.23;4.50;;;10.90;99.90;;;;;;4951442;28;20349;-75
2022/06/21 04:05:50;;;;;;;6.23;4.10;;;10.90;99.90;;;;;;4951176;28;20303;-81
2022/06/21 04:08:24;;;;;;;6.60;4.53;;;10.90;99.90;;;;;;4951733;29;20201;-80
2022/06/21 04:10:57;;;;;;;8.27;5.03;;;11.00;99.90;;;;;;4950387;29;20204;-79
2022/06/21 04:13:32;;;;;;;6.77;5.20;;;11.00;99.90;;;;;;4950057;29;20613;-81
2022/06/21 04:16:05;;;;;;;9.70;5.13;;;11.00;99.90;;;;;;4950013;28;20212;-82
2022/06/21 04:18:40;;;;;;;7.70;5.03;;;11.10;99.90;;;;;;4949960;29;20207;-76
2022/06/21 04:21:13;;;;;;;8.50;5.73;;;11.20;99.90;;;;;;4950371;28;20235;-80
2022/06/21 04:23:45;;;;;;;7.20;5.40;;;11.40;99.90;;;;;;4950517;29;20201;-81
2022/06/21 04:26:18;;;;;;;10.27;5.97;;;11.60;99.90;;;;;;4948849;29;20206;-80
2022/06/21 04:28:50;;;;;;;8.63;6.20;;;11.70;99.90;;;;;;4949434;29;20253;-78
2022/06/21 04:31:25;;;;;;;11.17;7.13;;;11.90;99.90;;;;;;4947548;28;20216;-81
2022/06/21 04:33:58;;;;;;;12.40;7.23;;;12.00;99.90;;;;;;4951435;29;20437;-83
2022/06/21 04:36:30;;;;;;;8.00;6.73;;;12.10;99.90;;;;;;4950679;29;20700;-81
2022/06/21 04:39:01;;;;;;;10.57;6.30;;;12.20;99.90;;;;;;4956314;28;20564;-80
2022/06/21 04:41:35;;;;;;;6.80;5.67;;;12.20;99.90;;;;;;4969563;28;20243;-81
2022/06/21 04:44:07;;;;;;;6.57;4.70;;;12.20;99.90;;;;;;4970344;28;20224;-79
2022/06/21 04:46:40;;;;;;;7.33;4.90;;;12.20;99.90;;;;;;4966142;28;20204;-83
2022/06/21 04:49:15;;;;;;;10.07;5.60;;;12.20;99.90;;;;;;4950539;29;20208;-79
2022/06/21 04:51:47;;;;;;;5.83;5.27;;;12.20;99.90;;;;;;4950108;29;20501;-77
2022/06/21 04:54:20;;;;;;;7.47;5.40;;;12.30;99.90;;;;;;4950684;29;20193;-81
2022/06/21 04:56:53;;;;;;;7.57;5.00;;;12.30;99.90;;;;;;4950818;28;20206;-82
2022/06/21 04:59:25;;;;;;;7.63;5.47;;;12.40;99.90;;;;;;4950586;29;20204;-77
2022/06/21 05:01:54;;;;;;;10.77;6.23;;;12.60;99.90;;;;;;4950527;28;20209;-81
2022/06/21 05:04:26;;;;;;;8.70;6.10;;;12.80;99.90;;;;;;4950719;28;20868;-81
2022/06/21 05:06:55;;;;;;;11.67;6.37;;;13.00;99.90;;;;;;4952628;28;20209;-81
2022/06/21 05:09:25;;;;;;;9.47;5.47;;;13.30;99.90;;;;;;4954071;29;20201;-79
2022/06/21 05:11:58;;;;;;;9.10;5.30;;;13.60;99.90;;;;;;4954502;28;20595;-76
2022/06/21 05:14:28;;;;;;;12.43;6.33;;;14.00;99.90;;;;;;4952914;29;20213;-80
2022/06/21 05:16:56;;;;;;;8.00;5.50;;;14.40;99.90;;;;;;4953389;29;20201;-81
2022/06/21 05:19:27;;;;;;;13.07;5.27;;;14.90;99.90;;;;;;4949942;28;20789;-80
2022/06/21 05:22:00;;;;;;;7.30;4.40;;;15.40;99.90;;;;;;4948483;29;20221;-80
2022/06/21 05:24:27;;;;;;;8.60;4.30;;;15.90;99.90;;;;;;4948968;29;20205;-78
2022/06/21 05:27:04;;;;;;;6.22;3.28;;;16.40;99.90;;;;;;4948650;28;20205;-80
2022/06/21 05:29:37;;;;;;;7.43;3.33;;;16.90;99.90;;;;;;4949016;29;20201;-82
2022/06/21 05:32:13;;;;;;;7.78;2.85;;;17.40;99.90;;;;;;4947812;29;20209;-79
2022/06/21 05:34:44;;;;;;;6.32;2.65;;;17.90;99.90;;;;;;4948295;28;20205;-80
2022/06/21 05:37:29;;;;;;;9.35;2.67;;;18.30;99.90;;;;;;4948108;29;20204;-79
2022/06/21 05:39:58;;;;;;;8.55;2.75;;;18.70;99.90;;;;;;4947668;28;20224;-80
2022/06/21 05:42:27;;;;;;;6.47;2.45;;;19.10;99.90;;;;;;4947027;29;20357;-78
2022/06/21 05:44:59;;;;;;;7.82;2.60;;;19.50;99.90;;;;;;4947874;29;20209;-81
2022/06/21 05:47:31;;;;;;;7.30;3.10;;;19.80;99.90;;;;;;4947786;29;20204;-79
2022/06/21 05:50:00;;;;;;;7.25;2.60;;;20.00;99.90;;;;;;4961129;28;20200;-79
2022/06/21 05:52:31;;;;;;;4.53;2.60;;;20.30;99.90;;;;;;4962824;28;20212;-81
2022/06/21 05:55:02;;;;;;;9.98;3.30;;;20.60;99.90;;;;;;4948814;28;20220;-80
2022/06/21 05:57:37;;;;;;;6.55;2.75;;;20.60;99.90;;;;;;4950815;28;20208;-79
2022/06/21 06:00:07;;;;;;;5.22;2.70;;;20.60;99.90;;;;;;4966675;28;20196;-81
2022/06/21 06:02:39;;;;;;;6.60;2.97;;;20.80;99.90;;;;;;4949024;28;20216;-82
2022/06/21 06:05:12;;;;;;;9.05;2.85;;;21.10;99.90;;;;;;4953763;28;20224;-83
2022/06/21 06:07:44;;;;;;;6.85;2.83;;;21.40;99.90;;;;;;4966790;28;20271;-79
2022/06/21 06:10:12;;;;;;;6.38;2.83;;;21.70;99.90;;;;;;4966490;28;20212;-82
2022/06/21 06:12:42;;;;;;;5.07;2.67;;;22.10;99.90;;;;;;4967649;28;20208;-82
2022/06/21 06:15:13;;;;;;;7.15;3.38;;;22.30;99.90;;;;;;4968328;28;20213;-83
2022/06/21 06:17:46;;;;;;;8.93;3.28;;;22.40;99.90;;;;;;4966173;28;20205;-84
2022/06/21 06:20:21;;;;;;;9.80;2.97;;;22.50;99.90;;;;;;4967373;28;20417;-81
2022/06/21 06:22:59;;;;;;;10.63;3.05;;;22.90;99.90;;;;;;4950127;28;20284;-83
2022/06/21 06:25:32;;;;;;;7.85;3.30;;;23.00;99.90;;;;;;4949540;29;20233;-82
2022/06/21 06:28:04;;;;;;;6.07;2.45;;;23.00;99.90;;;;;;4948025;28;20241;-82
2022/06/21 06:30:37;;;;;;;10.55;2.78;;;23.00;99.90;;;;;;4948357;28;20209;-83
2022/06/21 06:33:15;;;;;;;8.38;3.50;;;23.20;99.90;;;;;;4947519;29;20197;-82
2022/06/21 06:35:43;;;;;;;7.55;3.28;;;23.30;99.90;;;;;;4949793;29;20280;-85
2022/06/21 06:38:12;;;;;;;6.10;2.92;;;23.50;99.90;;;;;;4951978;28;20221;-81
2022/06/21 06:40:44;;;;;;;5.40;2.60;;;23.20;99.90;;;;;;4967725;28;20220;-82
2022/06/21 06:43:15;;;;;;;6.88;3.17;;;23.40;99.90;;;;;;4967881;28;20205;-83
2022/06/21 06:45:44;;;;;;;5.65;3.35;;;23.70;99.90;;;;;;4966213;28;20209;-83
2022/06/21 06:48:20;;;;;;;5.07;2.60;;;23.80;99.90;;;;;;4950121;28;20201;-79
2022/06/21 06:50:54;;;;;;;8.05;3.47;;;23.90;99.90;;;;;;4950189;28;20213;-83
2022/06/21 06:53:25;;;;;;;7.15;3.00;;;23.90;99.90;;;;;;4947736;28;20409;-81
2022/06/21 06:55:57;;;;;;;7.07;3.67;;;24.30;99.90;;;;;;4951637;29;20284;-78
2022/06/21 06:58:28;;;;;;;6.55;3.42;;;24.40;99.90;;;;;;4951555;29;20206;-83
2022/06/21 07:01:01;;;;;;;4.68;2.65;;;24.50;99.90;;;;;;4951500;29;20224;-82
2022/06/21 07:06:12;;;;;;;6.53;2.90;;;25.10;99.90;;;;;;5247003;23;20541;-79
2022/06/21 07:08:45;;;;;;;7.32;2.78;;;25.40;99.90;;;;;;4963039;28;20691;-83
2022/06/21 07:11:19;;;;;;;6.53;2.40;;;25.50;99.90;;;;;;4977089;28;20223;-79
2022/06/21 07:13:47;;;;;;;7.78;2.90;;;25.10;99.90;;;;;;4982992;28;20222;-82
2022/06/21 07:16:18;;;;;;;8.60;3.08;;;25.20;99.90;;;;;;4964102;28;20276;-81
2022/06/21 07:18:51;;;;;;;5.80;2.83;;;25.10;99.90;;;;;;4962717;28;20816;-84
2022/06/21 07:21:23;;;;;;;6.65;3.38;;;25.20;99.90;;;;;;4972913;28;20231;-81
2022/06/21 07:23:52;;;;;;;8.02;3.25;;;25.10;99.90;;;;;;4960648;28;20215;-83
2022/06/21 07:26:27;;;;;;;6.43;2.95;;;25.10;99.90;;;;;;4962426;28;20251;-84
2022/06/21 07:28:59;;;;;;;9.20;4.00;;;25.60;99.90;;;;;;4963690;28;20345;-82
2022/06/21 07:31:31;;;;;;;5.63;2.72;;;25.60;99.90;;;;;;4953400;28;20197;-80
2022/06/21 07:34:03;;;;;;;8.48;4.20;;;25.60;99.90;;;;;;4950725;28;20535;-82
2022/06/21 07:36:40;;;;;;;6.40;3.75;;;25.70;99.90;;;;;;4948436;29;20291;-82
2022/06/21 07:39:14;;;;;;;6.35;3.60;;;25.50;99.90;;;;;;4949724;29;20205;-79
2022/06/21 07:41:47;;;;;;;10.52;4.28;;;25.50;99.90;;;;;;4957150;28;20223;-81
2022/06/21 07:44:22;;;;;;;8.30;4.00;;;25.30;99.90;;;;;;4968908;28;20209;-83
2022/06/21 07:46:54;;;;;;;10.82;3.95;;;25.30;99.90;;;;;;4970525;28;20195;-82
2022/06/21 07:49:26;;;;;;;11.38;3.67;;;25.50;99.90;;;;;;4968752;28;20208;-82
2022/06/21 07:51:58;;;;;;;6.57;3.20;;;25.70;99.90;;;;;;4969968;28;20841;-82
2022/06/21 07:54:29;;;;;;;7.97;3.50;;;25.80;99.90;;;;;;4969316;28;20201;-83
2022/06/21 07:56:59;;;;;;;8.30;3.30;;;26.10;99.90;;;;;;4949510;29;20205;-83
2022/06/21 07:59:29;;;;;;;7.70;3.28;;;26.30;99.90;;;;;;4958179;28;20322;-83
2022/06/21 08:07:41;;;;;;;6.70;2.80;;;27.20;99.90;;;;;;4951149;29;20277;-80
2022/06/21 08:10:13;;;;;;;4.10;2.15;;;27.30;99.90;;;;;;4937066;29;20208;-82
2022/06/21 08:12:40;;;;;;;3.92;2.10;;;27.30;99.90;;;;;;4950455;29;20460;-78
2022/06/21 08:15:08;;;;;;;8.77;2.33;;;27.30;99.90;;;;;;4948567;29;20558;-77
2022/06/21 08:17:42;;;;;;;4.85;2.53;;;27.60;99.90;;;;;;4949023;29;20877;-83
2022/06/21 08:20:14;;;;;;;4.18;1.95;;;26.60;99.90;;;;;;4949532;29;20232;-83
2022/06/21 08:22:48;;;;;;;6.97;2.60;;;26.20;99.90;;;;;;4935565;29;20234;-80
2022/06/21 08:25:23;;;;;;;6.00;2.30;;;26.30;99.90;;;;;;4931858;29;20202;-82
2022/06/21 08:27:56;;;;;;;8.77;4.00;;;26.20;99.90;;;;;;4931298;29;20223;-84
2022/06/21 08:30:29;;;;;;;7.00;3.45;;;26.20;99.90;;;;;;4931161;29;20214;-82
2022/06/21 08:33:03;;;;;;;6.93;3.75;;;26.10;99.90;;;;;;4929529;29;20316;-82
2022/06/21 08:35:35;;;;;;;10.63;3.80;;;25.70;99.90;;;;;;4931140;29;20654;-83
2022/06/21 08:38:09;;;;;;;6.03;3.60;;;24.90;99.90;;;;;;4930617;29;20209;-82
2022/06/21 08:44:39;;;;;;;11.80;4.07;;;23.60;99.90;;;;;;4872286;29;20231;-83
2022/06/21 08:47:29;;;;;;;7.35;3.42;;;23.10;99.90;;;;;;4860629;29;20218;-81
2022/06/21 08:50:39;;;;;;;6.43;3.58;;;22.80;99.90;;;;;;4944021;29;20234;-81
2022/06/21 08:53:29;;;;;;;9.65;3.70;;;22.80;99.90;;;;;;4915725;29;20285;-83
2022/06/21 08:56:02;;;;;;;10.00;3.22;;;23.10;99.90;;;;;;4929608;29;20229;-79
2022/06/21 08:58:45;;;;;;;8.70;3.17;;;23.10;99.90;;;;;;4929302;29;20225;-81
2022/06/21 09:01:18;;;;;;;7.50;3.58;;;23.30;99.90;;;;;;4930403;29;20213;-80
2022/06/21 09:04:03;;;;;;;7.50;2.95;;;23.90;99.90;;;;;;4929630;29;20229;-78
2022/06/21 09:06:45;;;;;;;9.27;3.50;;;24.50;99.90;;;;;;4941981;29;20244;-82
2022/06/21 09:09:31;;;;;;;7.00;3.35;;;24.90;99.90;;;;;;4947984;29;20760;-82
2022/06/21 09:12:06;;;;;;;7.15;3.30;;;25.00;99.90;;;;;;4948251;29;20232;-80
2022/06/21 09:14:49;;;;;;;6.22;3.25;;;24.80;99.90;;;;;;4947703;29;20251;-81
2022/06/21 09:17:26;;;;;;;7.13;2.95;;;24.50;99.90;;;;;;4948296;28;20574;-81
2022/06/21 09:20:11;;;;;;;8.90;3.03;;;24.60;99.90;;;;;;4947536;29;20304;-80
2022/06/21 09:22:53;;;;;;;5.65;2.90;;;24.90;99.90;;;;;;4947710;29;20258;-83
2022/06/21 09:25:28;;;;;;;9.82;3.28;;;25.40;99.90;;;;;;4949571;29;20216;-83
2022/06/21 09:28:05;;;;;;;6.80;3.05;;;25.70;99.90;;;;;;4948489;29;20213;-85
2022/06/21 09:30:38;;;;;;;8.65;3.17;;;26.10;99.90;;;;;;4949370;29;20224;-85
2022/06/21 09:33:12;;;;;;;6.00;2.50;;;25.90;99.90;;;;;;4947949;29;20221;-80
2022/06/21 09:35:47;;;;;;;8.25;2.90;;;25.90;99.90;;;;;;4948938;29;20881;-81
2022/06/21 09:38:25;;;;;;;7.10;2.90;;;25.60;99.90;;;;;;4947385;29;20283;-83
2022/06/21 09:41:04;;;;;;;5.13;2.85;;;25.20;99.90;;;;;;4948491;29;20197;-79
2022/06/21 09:43:41;;;;;;;7.05;2.58;;;24.90;99.90;;;;;;4948669;29;20232;-81
2022/06/21 09:46:18;;;;;;;6.13;2.95;;;24.80;99.90;;;;;;4944593;29;20302;-76
2022/06/21 09:48:54;;;;;;;5.45;2.60;;;25.00;99.90;;;;;;4929404;29;20212;-81
2022/06/21 09:51:28;;;;;;;5.65;2.78;;;24.90;99.90;;;;;;4929802;29;20689;-80
2022/06/21 09:54:07;;;;;;;4.63;2.50;;;25.00;99.90;;;;;;4929759;29;20482;-80
2022/06/21 09:56:43;;;;;;;7.45;2.90;;;25.20;99.90;;;;;;4929004;29;20532;-81
2022/06/21 09:59:17;;;;;;;7.07;2.65;;;25.50;99.90;;;;;;4930451;29;20213;-81
2022/06/21 10:01:50;;;;;;;8.45;3.80;;;25.80;99.90;;;;;;4928110;29;20229;-80
2022/06/21 10:04:24;;;;;;;14.50;3.65;;;26.00;99.90;;;;;;4930565;29;20237;-85
2022/06/21 10:07:00;;;;;;;8.57;3.15;;;25.80;99.90;;;;;;4949435;29;20566;-82
2022/06/21 10:09:41;;;;;;;7.10;2.40;;;25.30;99.90;;;;;;4947726;29;20601;-86
2022/06/21 10:12:20;;;;;;;5.53;2.53;;;25.10;99.90;;;;;;4947033;29;20553;-80
2022/06/21 10:15:30;;;;;;;6.78;2.80;;;25.40;99.90;;;;;;4947671;29;20613;-82
2022/06/21 10:18:42;;;;;;;5.72;2.45;;;25.70;99.90;;;;;;4947177;29;20204;-82
2022/06/21 10:21:21;;;;;;;6.35;2.30;;;25.60;99.90;;;;;;4918487;29;20501;-81
2022/06/21 10:24:14;;;;;;;11.63;2.72;;;25.70;99.90;;;;;;4928269;29;20249;-79
2022/06/21 10:27:19;;;;;;;5.65;2.85;;;25.40;99.90;;;;;;4923564;29;20216;-80
2022/06/21 10:30:07;;;;;;;7.65;2.65;;;25.30;99.90;;;;;;4905704;29;20213;-77
2022/06/21 10:32:57;;;;;;;5.82;2.78;;;25.30;99.90;;;;;;4932474;29;20614;-79
2022/06/21 10:35:47;;;;;;;6.55;2.40;;;25.10;99.90;;;;;;4932516;29;20210;-78
2022/06/21 10:38:32;;;;;;;6.70;2.60;;;25.00;99.90;;;;;;4933577;29;20205;-80
2022/06/21 10:41:21;;;;;;;6.28;2.63;;;25.00;99.90;;;;;;4943365;29;20201;-79
2022/06/21 10:44:12;;;;;;;6.53;2.30;;;25.00;99.90;;;;;;4952194;29;20221;-83
2022/06/21 10:46:44;;;;;;;7.10;2.75;;;24.90;99.90;;;;;;4953482;29;20601;-82
2022/06/21 10:49:39;;;;;;;6.22;2.65;;;25.00;99.90;;;;;;4946362;29;20300;-79
2022/06/21 10:52:30;;;;;;;5.60;2.20;;;25.10;99.90;;;;;;4933166;29;20208;-83
2022/06/21 10:55:27;;;;;;;4.00;2.13;;;25.10;99.90;;;;;;4934044;29;20212;-79
2022/06/21 10:58:01;;;;;;;4.25;2.30;;;25.30;99.90;;;;;;4929847;29;20334;-81
2022/06/21 11:03:46;;;;;;;7.20;2.92;;;25.20;99.90;;;;;;4937391;29;20780;-84
2022/06/21 11:06:30;;;;;;;5.25;2.60;;;25.10;99.90;;;;;;4935748;29;20723;-81
2022/06/21 11:09:04;;;;;;;9.57;2.72;;;24.90;99.90;;;;;;4937256;29;20208;-80
2022/06/21 11:11:41;;;;;;;8.55;3.05;;;24.60;99.90;;;;;;4936581;29;20194;-82
2022/06/21 11:14:18;;;;;;;7.40;2.58;;;24.20;99.90;;;;;;4951466;29;20260;-81
2022/06/21 11:16:54;;;;;;;5.63;2.55;;;24.00;99.90;;;;;;4957194;29;20205;-80
2022/06/21 11:19:35;;;;;;;5.40;2.60;;;23.50;99.90;;;;;;4955687;29;20209;-82
2022/06/21 11:22:25;;;;;;;5.93;2.88;;;23.40;99.90;;;;;;4956208;29;20332;-79
2022/06/21 11:25:00;;;;;;;6.38;2.63;;;23.30;99.90;;;;;;4957437;29;20174;-81
2022/06/21 11:27:35;;;;;;;6.72;3.05;;;23.30;99.90;;;;;;4970350;29;20201;-82
2022/06/21 11:30:07;;;;;;;9.52;2.88;;;23.20;99.90;;;;;;4967298;28;20201;-79
2022/06/21 11:32:38;;;;;;;7.40;2.90;;;23.10;99.90;;;;;;4932734;28;20209;-80
2022/06/21 11:35:17;;;;;;;6.57;3.03;;;23.00;99.90;;;;;;4957434;28;20236;-82
2022/06/21 11:37:58;;;;;;;6.65;2.67;;;22.80;99.90;;;;;;4943054;29;20227;-81
2022/06/21 11:40:46;;;;;;;5.40;2.70;;;22.80;99.90;;;;;;4949634;28;20242;-79
2022/06/21 11:43:39;;;;;;;5.18;2.65;;;22.90;99.90;;;;;;4954914;28;20237;-81
2022/06/21 11:46:15;;;;;;;4.75;2.50;;;22.80;99.90;;;;;;4935047;29;20230;-85
2022/06/21 11:49:04;;;;;;;7.10;3.42;;;22.70;99.90;;;;;;4944643;28;20212;-81
2022/06/21 11:51:52;;;;;;;7.53;2.40;;;22.90;99.90;;;;;;4957213;28;20223;-81
2022/06/21 11:54:23;;;;;;;7.75;2.60;;;23.10;99.90;;;;;;4955499;28;20672;-82
2022/06/21 11:56:58;;;;;;;6.43;2.97;;;23.30;99.90;;;;;;4954598;28;20492;-81
2022/06/21 11:59:33;;;;;;;7.13;2.97;;;23.40;99.90;;;;;;4952562;28;20237;-81
2022/06/21 12:02:05;;;;;;;6.43;2.88;;;23.70;99.90;;;;;;4948163;28;20308;-81
2022/06/21 12:04:41;;;;;;;5.57;2.08;;;23.90;99.90;;;;;;4955016;28;20637;-82
2022/06/21 12:07:14;;;;;;;7.57;2.45;;;24.10;99.90;;;;;;4941970;28;20244;-82
2022/06/21 12:09:46;;;;;;;9.20;3.17;;;24.50;99.90;;;;;;4953117;28;20692;-81
2022/06/21 12:12:40;;;;;;;5.45;2.65;;;24.80;99.90;;;;;;4946174;28;20218;-80
2022/06/21 12:15:38;;;;;;;6.57;3.03;;;24.90;99.90;;;;;;4939933;28;20274;-80
2022/06/21 12:18:10;;;;;;;6.05;2.53;;;24.80;99.90;;;;;;4928478;29;20194;-79
2022/06/21 12:20:42;;;;;;;6.32;2.30;;;24.50;99.90;;;;;;4932710;28;20224;-78
2022/06/21 12:23:19;;;;;;;6.68;2.95;;;24.50;99.90;;;;;;4945796;28;20238;-82
2022/06/21 12:25:47;;;;;;;5.93;2.53;;;24.50;99.90;;;;;;4942269;28;20224;-78
2022/06/21 12:28:16;;;;;;;4.80;2.35;;;24.60;99.90;;;;;;4950488;28;20227;-80
2022/06/21 12:30:43;;;;;;;5.55;2.50;;;24.80;99.90;;;;;;4958841;28;20248;-79
2022/06/21 12:33:14;;;;;;;8.10;3.03;;;24.90;99.90;;;;;;4957564;28;20225;-82
2022/06/21 12:35:47;;;;;;;6.85;2.80;;;25.00;99.90;;;;;;4941597;28;20229;-78
2022/06/21 12:38:21;;;;;;;8.00;2.78;;;25.20;99.90;;;;;;4944855;28;20221;-80
2022/06/21 12:40:55;;;;;;;4.35;2.53;;;25.50;99.90;;;;;;4953032;28;20689;-82
2022/06/21 12:43:40;;;;;;;5.90;2.65;;;25.50;99.90;;;;;;4961330;28;20322;-79
2022/06/21 12:46:12;;;;;;;7.32;2.83;;;25.60;99.90;;;;;;4935875;29;20337;-78
2022/06/21 12:49:19;;;;;;;6.03;2.88;;;25.60;99.90;;;;;;4933193;29;20221;-77
2022/06/21 12:51:56;;;;;;;5.47;2.45;;;25.60;99.90;;;;;;4943378;28;20770;-81
2022/06/21 12:54:54;;;;;;;4.35;2.30;;;25.50;99.90;;;;;;4944696;28;20220;-79
2022/06/21 12:57:44;;;;;;;4.75;2.38;;;25.50;99.90;;;;;;4936996;29;20228;-80
2022/06/21 13:00:33;;;;;;;7.25;2.58;;;25.10;99.90;;;;;;4941785;28;20222;-78
2022/06/21 13:03:35;;;;;;;6.47;2.60;;;24.80;99.90;;;;;;4942274;28;20241;-80
2022/06/21 13:06:29;;;;;;;5.30;2.50;;;24.70;99.90;;;;;;4935809;28;20251;-82
2022/06/21 13:09:09;;;;;;;6.93;3.03;;;24.60;99.90;;;;;;4940959;28;20240;-82
2022/06/21 13:12:00;;;;;;;5.40;2.63;;;24.40;99.90;;;;;;4938723;28;20217;-77
2022/06/21 13:14:57;;;;;;;7.80;2.90;;;24.10;99.90;;;;;;4953809;28;20216;-79
2022/06/21 13:18:04;;;;;;;7.75;2.53;;;24.00;99.90;;;;;;4937288;28;20214;-79
2022/06/21 13:20:38;;;;;;;7.32;2.83;;;24.10;99.90;;;;;;4936039;28;20220;-83
2022/06/21 13:23:12;;;;;;;6.50;3.00;;;24.00;99.90;;;;;;4942011;28;20234;-80
2022/06/21 13:25:51;;;;;;;5.60;2.35;;;23.90;99.90;;;;;;4943158;28;20264;-78
2022/06/21 13:28:37;;;;;;;7.47;2.65;;;23.90;99.90;;;;;;4926497;29;20557;-78
2022/06/21 13:31:10;;;;;;;9.15;2.53;;;24.00;99.90;;;;;;4928613;29;20208;-81
2022/06/21 13:33:56;;;;;;;6.32;2.78;;;24.10;99.90;;;;;;4928271;29;20242;-80
2022/06/21 13:36:32;;;;;;;6.38;2.13;;;24.20;99.90;;;;;;4929441;29;20202;-80
2022/06/21 13:39:03;;;;;;;8.93;3.10;;;24.30;99.90;;;;;;4928903;29;20197;-80
2022/06/21 13:44:30;;;;;;;8.88;3.13;;;24.40;99.90;;;;;;4930980;29;20295;-82
2022/06/21 13:47:04;;;;;;;6.82;2.80;;;24.30;99.90;;;;;;4930184;28;20237;-79